createdAt,value
2019-05-11T00:02:22.162Z,5.13
2019-05-11T00:04:55.543Z,5.37
2019-05-11T00:07:25.565Z,5.40
2019-05-11T00:09:57.910Z,5.27
2019-05-11T00:12:27.379Z,5.47
2019-05-11T00:14:57.508Z,4.70
2019-05-11T00:17:27.404Z,5.10
2019-05-11T00:19:58.701Z,5.93
2019-05-11T00:22:29.676Z,5.43
2019-05-11T00:25:00.704Z,6.20
2019-05-11T00:30:00.074Z,4.43
2019-05-11T00:32:30.117Z,4.80
2019-05-11T00:35:00.124Z,3.77
2019-05-11T00:37:30.355Z,4.47
2019-05-11T00:40:13.410Z,5.20
2019-05-11T00:42:32.613Z,4.20
2019-05-11T00:45:02.667Z,4.00
2019-05-11T00:47:32.594Z,4.23
2019-05-11T00:50:02.873Z,3.80
2019-05-11T00:52:32.715Z,3.50
2019-05-11T00:55:03.166Z,3.53
2019-05-11T00:57:35.862Z,3.30
2019-05-11T01:00:08.476Z,3.77
2019-05-11T01:02:38.394Z,3.43
2019-05-11T01:05:09.258Z,4.00
2019-05-11T01:07:39.284Z,4.17
2019-05-11T01:10:23.132Z,4.37
2019-05-11T01:12:41.435Z,4.90
2019-05-11T01:15:12.165Z,4.60
2019-05-11T01:17:42.195Z,5.00
2019-05-11T01:20:12.529Z,5.03
2019-05-11T01:22:44.218Z,4.83
2019-05-11T01:25:14.519Z,5.40
2019-05-11T01:27:44.389Z,5.20
2019-05-11T01:30:15.320Z,4.90
2019-05-11T01:32:45.174Z,4.40
2019-05-11T01:35:15.262Z,4.90
2019-05-11T01:37:45.132Z,4.47
2019-05-11T01:40:16.240Z,4.90
2019-05-11T01:42:46.142Z,4.30
2019-05-11T01:45:16.207Z,4.80
2019-05-11T01:47:46.075Z,5.20
2019-05-11T01:50:18.796Z,5.30
2019-05-11T01:52:49.078Z,5.53
2019-05-11T01:55:19.913Z,6.50
2019-05-11T01:57:51.813Z,5.63
2019-05-11T02:00:23.555Z,6.63
2019-05-11T02:02:53.732Z,8.70
2019-05-11T02:05:30.162Z,6.73
2019-05-11T02:08:02.943Z,6.80
2019-05-11T02:10:35.409Z,6.10
2019-05-11T02:13:06.960Z,6.47
2019-05-11T02:15:39.396Z,7.17
2019-05-11T02:18:10.952Z,11.87
2019-05-11T02:20:40.847Z,11.23
2019-05-11T02:23:10.731Z,19.03
2019-05-11T02:25:40.624Z,23.33
2019-05-11T02:28:10.847Z,22.50
2019-05-11T02:30:40.698Z,17.50
2019-05-11T02:33:11.041Z,14.87
2019-05-11T02:35:41.317Z,12.07
2019-05-11T02:38:12.109Z,9.83
2019-05-11T02:40:42.072Z,7.90
2019-05-11T02:43:12.085Z,6.77
2019-05-11T02:45:46.243Z,6.27
2019-05-11T02:48:16.338Z,7.00
2019-05-11T02:50:46.495Z,7.10
2019-05-11T02:53:17.541Z,6.90
2019-05-11T02:55:49.498Z,7.10
2019-05-11T02:58:19.374Z,6.10
2019-05-11T03:00:50.362Z,6.57
2019-05-11T03:03:20.366Z,6.40
2019-05-11T03:05:50.363Z,6.80
2019-05-11T03:08:20.327Z,6.67
2019-05-11T03:10:50.237Z,6.43
2019-05-11T03:13:23.124Z,7.03
2019-05-11T03:15:53.935Z,6.60
2019-05-11T03:18:26.656Z,6.80
2019-05-11T03:20:56.621Z,6.60
2019-05-11T03:23:26.561Z,6.20
2019-05-11T03:25:56.474Z,5.80
2019-05-11T03:28:26.431Z,6.27
2019-05-11T03:30:56.421Z,6.33
2019-05-11T03:33:26.436Z,6.30
2019-05-11T03:35:56.544Z,6.60
2019-05-11T03:38:26.545Z,7.00
2019-05-11T03:40:56.638Z,7.00
2019-05-11T03:43:27.584Z,6.80
2019-05-11T03:45:57.575Z,6.47
2019-05-11T03:48:27.463Z,7.77
2019-05-11T03:50:57.348Z,8.00
2019-05-11T03:53:27.305Z,6.83
2019-05-11T03:55:57.292Z,7.80
2019-05-11T03:58:30.054Z,7.27
2019-05-11T04:01:00.060Z,7.47
2019-05-11T04:03:30.073Z,7.60
2019-05-11T04:05:59.995Z,6.77
2019-05-11T04:08:30.148Z,7.27
2019-05-11T04:11:00.110Z,8.10
2019-05-11T04:13:34.699Z,7.73
2019-05-11T04:16:06.647Z,8.00
2019-05-11T04:18:36.623Z,7.80
2019-05-11T04:21:06.619Z,7.50
2019-05-11T04:23:35.664Z,8.53
2019-05-11T04:26:05.729Z,8.23
2019-05-11T04:28:35.609Z,8.23
2019-05-11T04:31:05.684Z,8.97
2019-05-11T04:33:36.877Z,8.43
2019-05-11T04:36:06.851Z,8.70
2019-05-11T04:38:37.660Z,9.10
2019-05-11T04:41:07.948Z,8.97
2019-05-11T04:43:39.044Z,8.70
2019-05-11T04:46:09.654Z,8.17
2019-05-11T04:48:39.577Z,9.63
2019-05-11T04:51:09.526Z,8.53
2019-05-11T04:53:39.406Z,8.87
2019-05-11T04:56:09.310Z,8.70
2019-05-11T04:58:39.639Z,8.17
2019-05-11T05:01:09.981Z,9.40
2019-05-11T05:03:41.318Z,7.90
2019-05-11T05:06:22.157Z,8.07
2019-05-11T05:08:43.721Z,9.03
2019-05-11T05:11:13.589Z,9.23
2019-05-11T05:13:43.895Z,8.70
2019-05-11T05:16:17.087Z,8.53
2019-05-11T05:18:47.601Z,8.83
2019-05-11T05:21:17.729Z,9.17
2019-05-11T05:23:47.768Z,8.40
2019-05-11T05:26:17.749Z,8.87
2019-05-11T05:28:48.271Z,8.90
2019-05-11T05:31:19.675Z,9.17
2019-05-11T05:33:50.068Z,8.63
2019-05-11T05:36:20.379Z,8.60
2019-05-11T05:38:50.428Z,8.97
2019-05-11T05:43:49.302Z,11.13
2019-05-11T05:46:19.469Z,10.60
2019-05-11T05:48:49.628Z,11.67
2019-05-11T05:51:19.740Z,10.03
2019-05-11T05:53:49.749Z,11.30
2019-05-11T05:56:19.716Z,10.13
2019-05-11T05:58:49.739Z,10.63
2019-05-11T06:01:22.613Z,10.53
2019-05-11T06:03:54.724Z,11.03
2019-05-11T06:06:24.684Z,10.67
2019-05-11T06:08:54.616Z,9.60
2019-05-11T06:11:28.799Z,9.80
2019-05-11T06:13:59.453Z,9.00
2019-05-11T06:16:29.402Z,9.83
2019-05-11T06:18:57.239Z,9.50
2019-05-11T06:21:27.265Z,9.63
2019-05-11T06:23:57.157Z,10.53
2019-05-11T06:26:27.202Z,9.70
2019-05-11T06:28:57.317Z,9.20
2019-05-11T06:31:27.330Z,10.27
2019-05-11T06:33:57.279Z,10.43
2019-05-11T06:36:27.189Z,10.10
2019-05-11T06:38:57.094Z,9.93
2019-05-11T06:41:30.434Z,9.60
2019-05-11T06:44:02.154Z,10.00
2019-05-11T06:46:34.966Z,9.83
2019-05-11T06:49:04.380Z,10.60
2019-05-11T06:51:40.404Z,10.47
2019-05-11T06:54:08.733Z,9.10
2019-05-11T06:56:39.521Z,9.03
2019-05-11T06:59:09.527Z,8.07
2019-05-11T07:01:39.466Z,8.93
2019-05-11T07:04:09.589Z,9.37
2019-05-11T07:06:37.637Z,9.07
2019-05-11T07:09:08.767Z,9.10
2019-05-11T07:11:39.016Z,9.33
2019-05-11T07:14:19.995Z,8.40
2019-05-11T07:16:45.245Z,8.17
2019-05-11T07:19:18.871Z,8.10
2019-05-11T07:21:49.284Z,7.23
2019-05-11T07:24:19.844Z,7.57
2019-05-11T07:26:50.416Z,6.63
2019-05-11T07:29:23.297Z,6.83
2019-05-11T07:31:53.721Z,6.53
2019-05-11T07:34:24.351Z,6.43
2019-05-11T07:36:57.642Z,5.87
2019-05-11T07:39:28.054Z,6.40
2019-05-11T07:41:58.569Z,6.20
2019-05-11T07:44:37.848Z,6.20
2019-05-11T07:47:00.357Z,6.90
2019-05-11T07:49:30.358Z,5.60
2019-05-11T07:52:01.228Z,5.77
2019-05-11T07:54:31.488Z,6.20
2019-05-11T07:57:03.099Z,6.27
2019-05-11T07:59:34.248Z,6.50
2019-05-11T08:02:04.481Z,6.43
2019-05-11T08:04:34.540Z,7.20
2019-05-11T08:07:04.437Z,7.10
2019-05-11T08:09:34.975Z,6.63
2019-05-11T08:12:04.959Z,6.23
2019-05-11T08:14:34.819Z,7.53
2019-05-11T08:17:08.606Z,7.40
2019-05-11T08:19:38.573Z,6.23
2019-05-11T08:22:10.442Z,6.10
2019-05-11T08:24:40.459Z,10.50
2019-05-11T08:27:12.301Z,5.70
2019-05-11T08:29:42.810Z,5.97
2019-05-11T08:32:13.057Z,5.80
2019-05-11T08:34:43.506Z,5.53
2019-05-11T08:37:18.936Z,5.10
2019-05-11T08:39:49.451Z,5.93
2019-05-11T08:42:19.374Z,6.00
2019-05-11T08:44:51.973Z,6.07
2019-05-11T08:47:22.127Z,6.90
2019-05-11T08:49:54.462Z,7.20
2019-05-11T08:52:28.018Z,6.80
2019-05-11T08:54:58.941Z,7.17
2019-05-11T08:57:30.204Z,6.40
2019-05-11T09:00:00.762Z,7.43
2019-05-11T09:02:30.939Z,7.07
2019-05-11T09:05:00.905Z,7.90
2019-05-11T09:07:31.218Z,8.77
2019-05-11T09:10:02.376Z,8.47
2019-05-11T09:12:33.041Z,10.20
2019-05-11T09:15:03.102Z,8.47
2019-05-11T09:17:33.591Z,10.00
2019-05-11T09:22:32.424Z,11.53
2019-05-11T09:25:03.187Z,10.40
2019-05-11T09:27:33.450Z,11.50
2019-05-11T09:30:08.110Z,10.10
2019-05-11T09:32:38.469Z,9.47
2019-05-11T09:35:09.488Z,13.70
2019-05-11T09:37:41.054Z,12.00
2019-05-11T09:40:11.312Z,11.00
2019-05-11T09:42:41.602Z,12.77
2019-05-11T09:45:12.220Z,13.23
2019-05-11T09:47:42.675Z,10.43
2019-05-11T09:50:13.540Z,10.10
2019-05-11T09:52:43.913Z,12.97
2019-05-11T09:55:15.330Z,13.60
2019-05-11T09:57:45.514Z,15.10
2019-05-11T10:00:19.906Z,21.57
2019-05-11T10:02:52.564Z,10.83
2019-05-11T10:05:23.190Z,18.67
2019-05-11T10:07:53.399Z,11.50
2019-05-11T10:10:23.423Z,16.93
2019-05-11T10:12:54.553Z,10.10
2019-05-11T10:15:24.566Z,16.40
2019-05-11T10:17:54.563Z,10.07
2019-05-11T10:20:23.442Z,8.90
2019-05-11T10:22:53.799Z,10.63
2019-05-11T10:25:23.814Z,21.67
2019-05-11T10:27:54.022Z,18.10
2019-05-11T10:30:24.147Z,9.70
2019-05-11T10:32:54.470Z,8.63
2019-05-11T10:35:25.671Z,9.40
2019-05-11T10:37:58.316Z,7.07
2019-05-11T10:40:29.577Z,7.97
2019-05-11T10:43:00.436Z,7.43
2019-05-11T10:45:30.777Z,6.93
2019-05-11T10:48:01.291Z,7.60
2019-05-11T10:50:31.358Z,8.27
2019-05-11T10:53:02.478Z,7.87
2019-05-11T10:55:32.667Z,7.83
2019-05-11T10:58:03.190Z,7.80
2019-05-11T11:00:35.240Z,7.73
2019-05-11T11:03:08.442Z,8.87
2019-05-11T11:05:38.885Z,9.03
2019-05-11T11:08:09.702Z,10.33
2019-05-11T11:10:39.783Z,9.50
2019-05-11T11:13:10.926Z,9.60
2019-05-11T11:15:41.305Z,9.73
2019-05-11T11:18:11.567Z,9.77
2019-05-11T11:23:12.160Z,9.30
2019-05-11T11:25:42.679Z,9.00
2019-05-11T11:28:13.617Z,8.20
2019-05-11T11:30:44.422Z,9.33
2019-05-11T11:33:15.558Z,8.00
2019-05-11T11:35:47.686Z,8.73
2019-05-11T11:38:19.328Z,8.93
2019-05-11T11:40:50.659Z,8.27
2019-05-11T11:43:20.747Z,7.50
2019-05-11T11:45:51.276Z,9.80
2019-05-11T11:48:22.392Z,9.47
2019-05-11T11:50:52.581Z,9.70
2019-05-11T11:53:24.740Z,8.90
2019-05-11T11:55:59.730Z,8.97
2019-05-11T11:58:32.024Z,8.30
2019-05-11T12:01:03.368Z,8.53
2019-05-11T12:03:33.837Z,8.80
2019-05-11T12:06:05.044Z,8.40
2019-05-11T12:08:38.731Z,7.57
2019-05-11T12:11:09.645Z,8.40
2019-05-11T12:13:40.449Z,8.83
2019-05-11T12:16:11.686Z,8.27
2019-05-11T12:18:43.594Z,8.40
2019-05-11T12:21:14.302Z,8.80
2019-05-11T12:23:44.624Z,7.93
2019-05-11T12:26:17.634Z,8.93
2019-05-11T12:28:48.974Z,10.40
2019-05-11T12:31:19.594Z,9.57
2019-05-11T12:33:52.002Z,9.27
2019-05-11T12:36:22.082Z,8.73
2019-05-11T12:38:52.086Z,8.40
2019-05-11T12:41:22.692Z,9.47
2019-05-11T12:43:52.676Z,7.90
2019-05-11T12:46:22.722Z,6.23
2019-05-11T12:48:56.561Z,6.03
2019-05-11T12:51:27.775Z,5.73
2019-05-11T12:53:58.617Z,6.70
2019-05-11T12:56:29.051Z,11.23
2019-05-11T12:59:01.434Z,7.03
2019-05-11T13:01:31.482Z,6.97
2019-05-11T13:04:03.433Z,6.90
2019-05-11T13:06:34.978Z,8.37
2019-05-11T13:09:07.738Z,8.03
2019-05-11T13:11:38.970Z,7.87
2019-05-11T13:14:12.205Z,7.90
2019-05-11T13:16:42.600Z,8.83
2019-05-11T13:19:14.739Z,6.37
2019-05-11T13:21:45.201Z,9.50
2019-05-11T13:24:15.348Z,6.27
2019-05-11T13:26:48.570Z,4.20
2019-05-11T13:29:20.318Z,6.63
2019-05-11T13:31:53.592Z,3.90
2019-05-11T13:34:23.642Z,3.27
2019-05-11T13:36:53.737Z,4.00
2019-05-11T13:39:24.948Z,3.47
2019-05-11T13:41:58.109Z,3.93
2019-05-11T13:44:28.483Z,3.73
2019-05-11T13:46:59.830Z,3.70
2019-05-11T13:51:59.062Z,4.20
2019-05-11T13:54:29.902Z,4.60
2019-05-11T13:56:59.955Z,5.17
2019-05-11T13:59:30.154Z,4.07
2019-05-11T14:02:00.811Z,5.17
2019-05-11T14:04:31.218Z,5.03
2019-05-11T14:07:01.641Z,5.47
2019-05-11T14:09:32.210Z,5.60
2019-05-11T14:12:04.086Z,5.50
2019-05-11T14:14:34.582Z,5.93
2019-05-11T14:17:05.054Z,7.57
2019-05-11T14:19:38.273Z,7.27
2019-05-11T14:22:08.687Z,6.43
2019-05-11T14:24:38.664Z,7.50
2019-05-11T14:27:08.709Z,7.10
2019-05-11T14:29:38.803Z,7.07
2019-05-11T14:32:09.028Z,6.20
2019-05-11T14:34:39.742Z,5.43
2019-05-11T14:37:09.806Z,4.90
2019-05-11T14:39:40.164Z,4.63
2019-05-11T14:42:10.996Z,3.60
2019-05-11T14:44:43.310Z,4.93
2019-05-11T14:47:14.800Z,3.57
2019-05-11T14:49:45.121Z,3.33
2019-05-11T14:52:19.140Z,3.80
2019-05-11T14:54:49.652Z,4.10
2019-05-11T14:57:19.645Z,3.43
2019-05-11T14:59:50.506Z,2.70
2019-05-11T15:02:38.321Z,3.07
2019-05-11T15:05:08.931Z,3.07
2019-05-11T15:07:39.100Z,2.50
2019-05-11T15:10:10.709Z,2.33
2019-05-11T15:12:41.076Z,2.63
2019-05-11T15:15:14.841Z,2.83
2019-05-11T15:17:44.971Z,2.13
2019-05-11T15:20:17.747Z,2.57
2019-05-11T15:22:48.939Z,2.70
2019-05-11T15:25:19.910Z,3.20
2019-05-11T15:27:50.365Z,2.37
2019-05-11T15:30:20.950Z,2.57
2019-05-11T15:32:51.340Z,2.80
2019-05-11T15:35:22.934Z,3.00
2019-05-11T15:37:54.401Z,2.40
2019-05-11T15:40:24.451Z,2.13
2019-05-11T15:42:54.814Z,2.60
2019-05-11T15:45:27.531Z,2.83
2019-05-11T15:48:01.147Z,2.87
2019-05-11T15:50:31.559Z,3.30
2019-05-11T15:53:02.234Z,5.97
2019-05-11T15:55:32.683Z,6.40
2019-05-11T15:58:03.600Z,6.87
2019-05-11T16:00:33.802Z,3.60
2019-05-11T16:03:04.556Z,3.53
2019-05-11T16:05:35.715Z,6.00
2019-05-11T16:08:08.396Z,9.37
2019-05-11T16:10:39.379Z,5.07
2019-05-11T16:13:09.871Z,3.20
2019-05-11T16:15:40.591Z,9.80
2019-05-11T16:18:11.944Z,7.40
2019-05-11T16:20:41.973Z,3.00
2019-05-11T16:23:12.919Z,2.80
2019-05-11T16:25:43.559Z,5.50
2019-05-11T16:28:13.616Z,15.30
2019-05-11T16:30:43.582Z,2.27
2019-05-11T16:33:13.740Z,2.83
2019-05-11T16:35:43.736Z,10.70
2019-05-11T16:38:13.796Z,4.60
2019-05-11T16:40:43.870Z,4.80
2019-05-11T16:43:14.069Z,11.57
2019-05-11T16:45:44.064Z,3.93
2019-05-11T16:48:14.022Z,3.90
2019-05-11T16:50:43.911Z,11.60
2019-05-11T16:53:17.983Z,9.70
2019-05-11T16:55:48.667Z,9.93
2019-05-11T16:58:20.034Z,3.30
2019-05-11T17:00:50.487Z,2.87
2019-05-11T17:03:23.719Z,4.30
2019-05-11T17:05:54.428Z,3.93
2019-05-11T17:08:24.534Z,3.23
2019-05-11T17:10:59.619Z,4.20
2019-05-11T17:13:30.490Z,2.90
2019-05-11T17:16:00.839Z,3.20
2019-05-11T17:18:34.919Z,3.27
2019-05-11T17:21:12.786Z,2.50
2019-05-11T17:23:43.475Z,3.27
2019-05-11T17:26:16.238Z,2.77
2019-05-11T17:28:48.950Z,3.27
2019-05-11T17:31:22.418Z,3.90
2019-05-11T17:33:53.632Z,3.07
2019-05-11T17:36:27.928Z,6.00
2019-05-11T17:38:58.587Z,5.60
2019-05-11T17:41:29.350Z,2.70
2019-05-11T17:44:01.681Z,3.83
2019-05-11T17:46:32.620Z,8.90
2019-05-11T17:49:03.093Z,5.00
2019-05-11T17:51:33.134Z,6.23
2019-05-11T17:54:04.368Z,3.77
2019-05-11T17:56:38.756Z,4.20
2019-05-11T17:59:08.535Z,3.60
2019-05-11T18:01:40.031Z,3.83
2019-05-11T18:04:13.421Z,4.13
2019-05-11T18:06:47.613Z,4.70
2019-05-11T18:09:19.248Z,6.80
2019-05-11T18:11:51.275Z,4.90
2019-05-11T18:14:21.805Z,5.20
2019-05-11T18:16:55.321Z,4.93
2019-05-11T18:19:27.682Z,5.03
2019-05-11T18:22:00.131Z,3.90
2019-05-11T18:24:33.435Z,3.97
2019-05-11T18:27:08.312Z,4.10
2019-05-11T18:29:42.965Z,4.57
2019-05-11T18:32:14.814Z,4.87
2019-05-11T18:34:52.565Z,3.90
2019-05-11T18:37:27.963Z,3.70
2019-05-11T18:40:01.484Z,4.47
2019-05-11T18:42:31.827Z,3.97
2019-05-11T18:45:09.134Z,3.97
2019-05-11T18:47:40.354Z,5.77
2019-05-11T18:50:12.321Z,4.40
2019-05-11T18:52:45.015Z,3.30
2019-05-11T18:55:15.404Z,4.63
2019-05-11T18:57:49.026Z,4.83
2019-05-11T19:00:20.612Z,3.10
2019-05-11T19:02:51.415Z,4.07
2019-05-11T19:05:21.917Z,3.20
2019-05-11T19:07:54.738Z,3.90
2019-05-11T19:10:27.781Z,4.20
2019-05-11T19:12:58.964Z,5.70
2019-05-11T19:15:30.196Z,5.93
2019-05-11T19:18:01.510Z,13.37
2019-05-11T19:20:45.416Z,4.70
2019-05-11T19:23:08.304Z,6.70
2019-05-11T19:25:38.642Z,4.93
2019-05-11T19:28:08.767Z,5.70
2019-05-11T19:30:41.752Z,6.87
2019-05-11T19:33:13.271Z,5.93
2019-05-11T19:35:43.531Z,6.63
2019-05-11T19:38:18.926Z,7.97
2019-05-11T19:40:50.077Z,7.37
2019-05-11T19:43:23.070Z,5.73
2019-05-11T19:45:54.266Z,7.67
2019-05-11T19:48:28.028Z,5.00
2019-05-11T19:51:07.718Z,10.97
2019-05-11T19:53:38.444Z,6.80
2019-05-11T19:56:12.205Z,5.37
2019-05-11T19:58:43.841Z,5.00
2019-05-11T20:01:15.404Z,5.77
2019-05-11T20:03:46.420Z,5.67
2019-05-11T20:06:17.300Z,4.57
2019-05-11T20:08:48.222Z,4.33
2019-05-11T20:11:19.845Z,3.87
2019-05-11T20:13:50.882Z,4.90
2019-05-11T20:16:21.491Z,5.77
2019-05-11T20:18:57.807Z,5.50
2019-05-11T20:21:30.161Z,6.60
2019-05-11T20:24:02.250Z,10.40
2019-05-11T20:26:33.411Z,6.23
2019-05-11T20:29:15.133Z,5.43
2019-05-11T20:31:47.360Z,5.30
2019-05-11T20:34:21.663Z,8.50
2019-05-11T20:36:53.925Z,5.20
2019-05-11T20:39:29.639Z,6.50
2019-05-11T20:42:02.875Z,5.23
2019-05-11T20:44:47.651Z,4.73
2019-05-11T20:47:19.044Z,4.97
2019-05-11T20:49:51.601Z,4.93
2019-05-11T20:52:21.977Z,5.03
2019-05-11T20:54:55.039Z,5.20
2019-05-11T20:57:28.347Z,4.87
2019-05-11T20:59:58.232Z,4.83
2019-05-11T21:02:30.322Z,4.17
2019-05-11T21:05:02.034Z,4.90
2019-05-11T21:07:34.484Z,5.70
2019-05-11T21:10:21.620Z,5.77
2019-05-11T21:12:55.029Z,7.47
2019-05-11T21:15:28.140Z,6.20
2019-05-11T21:17:58.844Z,5.37
2019-05-11T21:20:33.977Z,4.93
2019-05-11T21:23:04.604Z,5.27
2019-05-11T21:25:37.782Z,5.10
2019-05-11T21:28:09.891Z,6.37
2019-05-11T21:30:43.512Z,4.23
2019-05-11T21:33:17.759Z,6.03
2019-05-11T21:35:50.997Z,5.63
2019-05-11T21:38:21.834Z,6.20
2019-05-11T21:40:52.202Z,5.73
2019-05-11T21:43:25.420Z,4.70
2019-05-11T21:45:55.426Z,4.80
2019-05-11T21:48:27.919Z,5.00
2019-05-11T21:51:05.802Z,7.43
2019-05-11T21:53:37.996Z,6.10
2019-05-11T21:56:08.337Z,5.63
2019-05-11T21:58:40.687Z,5.47
2019-05-11T22:01:14.493Z,6.70
2019-05-11T22:03:50.703Z,5.00
2019-05-11T22:06:21.518Z,4.70
2019-05-11T22:08:51.542Z,5.17
2019-05-11T22:11:24.829Z,5.70
2019-05-11T22:13:54.871Z,5.67
2019-05-11T22:16:29.872Z,5.13
2019-05-11T22:18:58.160Z,4.97
2019-05-11T22:21:28.221Z,5.40
2019-05-11T22:23:58.663Z,5.23
2019-05-11T22:26:28.830Z,5.13
2019-05-11T22:28:59.049Z,5.37
2019-05-11T22:31:34.076Z,4.87
2019-05-11T22:34:04.513Z,4.40
2019-05-11T22:36:35.020Z,5.23
2019-05-11T22:39:08.388Z,5.27
2019-05-11T22:41:39.818Z,6.30
2019-05-11T22:44:10.886Z,4.77
2019-05-11T22:46:42.102Z,5.20
2019-05-11T22:49:11.006Z,5.63
2019-05-11T22:51:42.460Z,4.90
2019-05-11T22:54:12.513Z,3.67
2019-05-11T22:56:42.910Z,3.93
2019-05-11T22:59:12.952Z,3.93
2019-05-11T23:01:43.064Z,4.10
2019-05-11T23:04:19.668Z,4.30
2019-05-11T23:06:47.838Z,5.73
2019-05-11T23:09:19.814Z,4.80
2019-05-11T23:11:50.464Z,5.60
2019-05-11T23:14:21.857Z,3.80
2019-05-11T23:16:51.877Z,5.83
2019-05-11T23:19:22.336Z,4.27
2019-05-11T23:21:54.024Z,4.70
2019-05-11T23:24:24.586Z,4.70
2019-05-11T23:26:54.849Z,5.10
2019-05-11T23:29:28.422Z,5.20
2019-05-11T23:31:58.755Z,4.50
2019-05-11T23:34:28.863Z,5.53
2019-05-11T23:36:59.247Z,6.80
2019-05-11T23:39:29.442Z,6.60
2019-05-11T23:42:00.333Z,6.53
2019-05-11T23:44:33.795Z,5.73
2019-05-11T23:47:08.191Z,6.03
2019-05-11T23:49:40.454Z,5.67
2019-05-11T23:52:10.767Z,5.23
2019-05-11T23:54:41.184Z,6.30
2019-05-11T23:57:11.444Z,6.03
2019-05-11T23:59:41.580Z,6.37
